Time;durP1;ratioP1;P1;durP2;ratioP2;P2;SDS_P1;SDS_P2;PMS_P1;PMS_P2;Temp;Humidity;BMP_temperature;BMP_pressure;BME280_temperature;BME280_humidity;BME280_pressure;Samples;Min_cycle;Max_cycle;Signal;HPM_P1;HPM_P2
2022/05/27 00:12:47;;;;;;;1.38;1.10;;;17.60;79.60;;;;;;5076609;28;20049;-66
2022/05/27 00:30:09;;;;;;;;;;;;;;;;;;;;;
2022/05/27 03:43:02;;;;;;;3.97;1.30;;;17.40;79.00;;;;;;5035161;28;20056;-62
2022/05/27 03:45:28;;;;;;;2.17;1.30;;;17.40;78.90;;;;;;5031112;28;20043;-63
2022/05/27 03:47:54;;;;;;;2.17;1.33;;;17.30;78.90;;;;;;5034251;28;20104;-63
2022/05/27 03:50:23;;;;;;;2.33;1.30;;;17.40;79.00;;;;;;5033639;28;20029;-62
2022/05/27 03:52:52;;;;;;;1.33;1.20;;;17.40;79.00;;;;;;5034242;28;20022;-62
2022/05/27 03:55:22;;;;;;;4.43;1.15;;;17.40;79.00;;;;;;5032561;28;20037;-63
2022/05/27 03:57:48;;;;;;;2.83;1.52;;;17.40;79.00;;;;;;5033814;28;20025;-62
2022/05/27 04:00:21;;;;;;;4.97;1.58;;;17.30;78.90;;;;;;5032885;28;20064;-65
2022/05/27 04:02:47;;;;;;;2.30;1.42;;;17.30;78.90;;;;;;5032798;28;20112;-62
2022/05/27 04:05:16;;;;;;;1.95;1.15;;;17.30;78.90;;;;;;5033204;28;20112;-62
2022/05/27 04:07:42;;;;;;;7.80;1.42;;;17.30;78.90;;;;;;5031990;28;20083;-63
2022/05/27 04:10:08;;;;;;;1.73;1.20;;;17.30;78.90;;;;;;5031592;28;20108;-62
2022/05/27 04:12:35;;;;;;;2.00;1.42;;;17.30;78.90;;;;;;5033410;28;20029;-62
2022/05/27 04:15:01;;;;;;;1.70;1.60;;;17.30;78.90;;;;;;5033979;28;20034;-62
2022/05/27 04:17:33;;;;;;;2.35;1.40;;;17.30;78.90;;;;;;5033397;28;20044;-62
2022/05/27 04:19:59;;;;;;;2.22;1.48;;;17.30;78.90;;;;;;5033610;28;20033;-62
2022/05/27 04:22:26;;;;;;;2.70;1.45;;;17.30;78.90;;;;;;5033118;28;20483;-63
2022/05/27 04:24:51;;;;;;;2.92;1.35;;;17.30;78.80;;;;;;5033368;28;20101;-63
2022/05/27 04:27:19;;;;;;;4.57;1.50;;;17.30;78.90;;;;;;5033767;28;20121;-63
2022/05/27 04:29:47;;;;;;;2.92;1.27;;;17.30;78.90;;;;;;5032928;28;20042;-62
2022/05/27 04:32:13;;;;;;;1.60;1.10;;;17.30;79.60;;;;;;5030407;28;20025;-62
2022/05/27 04:34:40;;;;;;;5.72;1.20;;;17.30;78.90;;;;;;5032451;28;20072;-63
2022/05/27 04:37:07;;;;;;;1.30;1.20;;;17.30;78.90;;;;;;5032461;28;20113;-62
2022/05/27 04:39:33;;;;;;;1.77;1.23;;;17.30;78.90;;;;;;5031497;28;20405;-62
2022/05/27 04:41:59;;;;;;;6.95;1.50;;;17.30;78.90;;;;;;5032764;28;20036;-62
2022/05/27 04:44:26;;;;;;;2.67;1.58;;;17.30;78.90;;;;;;5032006;28;20030;-63
2022/05/27 04:46:51;;;;;;;2.97;0.93;;;17.30;78.90;;;;;;5031033;28;20056;-63
2022/05/27 04:52:02;;;;;;;2.65;1.35;;;17.30;78.90;;;;;;5031457;28;20494;-62
2022/05/27 04:54:27;;;;;;;1.67;1.40;;;17.40;78.90;;;;;;5029314;28;20041;-63
2022/05/27 04:56:55;;;;;;;1.83;1.05;;;17.40;78.90;;;;;;5031218;28;20025;-62
2022/05/27 04:59:21;;;;;;;2.85;1.15;;;17.40;78.90;;;;;;5031362;28;20035;-63
2022/05/27 05:01:47;;;;;;;2.30;1.10;;;17.40;78.80;;;;;;5031092;28;20112;-63
2022/05/27 05:04:12;;;;;;;2.15;1.20;;;17.40;78.80;;;;;;5031428;28;20121;-62
2022/05/27 05:06:38;;;;;;;3.38;1.20;;;17.40;78.90;;;;;;5032359;28;20025;-63
2022/05/27 05:09:04;;;;;;;3.75;1.02;;;17.40;78.80;;;;;;5029641;28;20025;-63
2022/05/27 05:11:30;;;;;;;2.97;0.93;;;17.40;78.80;;;;;;5030764;28;20517;-63
2022/05/27 05:13:55;;;;;;;3.75;1.58;;;17.50;78.80;;;;;;5032054;28;20052;-63
2022/05/27 05:16:21;;;;;;;3.08;1.20;;;17.50;78.80;;;;;;5031163;28;20056;-65
2022/05/27 05:18:47;;;;;;;2.67;1.20;;;17.50;78.90;;;;;;5029953;28;20025;-64
2022/05/27 05:21:13;;;;;;;2.25;1.40;;;17.40;78.60;;;;;;5030133;28;20392;-64
2022/05/27 05:23:39;;;;;;;1.40;1.15;;;17.30;78.70;;;;;;5031085;28;20587;-64
2022/05/27 05:26:04;;;;;;;1.80;1.15;;;17.30;79.00;;;;;;5030605;28;20034;-64
2022/05/27 05:28:30;;;;;;;3.92;1.50;;;17.30;80.00;;;;;;5030241;28;20030;-65
2022/05/27 05:30:55;;;;;;;2.75;1.25;;;17.20;79.30;;;;;;5029474;28;20026;-64
2022/05/27 05:33:21;;;;;;;2.58;1.33;;;17.20;79.30;;;;;;5029981;28;20558;-64
2022/05/27 05:35:46;;;;;;;2.08;1.35;;;17.30;79.40;;;;;;5030998;28;20079;-64
2022/05/27 05:38:13;;;;;;;2.00;1.50;;;17.30;79.60;;;;;;5030412;28;20506;-64
2022/05/27 05:40:39;;;;;;;5.75;1.42;;;17.30;79.80;;;;;;5028801;28;20087;-63
2022/05/27 05:43:06;;;;;;;2.92;1.30;;;17.30;80.20;;;;;;5030723;28;20045;-63
2022/05/27 05:45:32;;;;;;;1.85;1.50;;;17.30;80.50;;;;;;5030124;28;20030;-64
2022/05/27 05:47:58;;;;;;;2.00;1.30;;;17.20;80.60;;;;;;5031190;28;20406;-65
2022/05/27 05:50:23;;;;;;;2.22;1.27;;;17.20;80.80;;;;;;5050274;28;20039;-63
2022/05/27 05:52:50;;;;;;;3.97;1.55;;;17.20;80.80;;;;;;5050240;28;20025;-63
2022/05/27 05:55:17;;;;;;;1.50;1.33;;;17.20;80.90;;;;;;5040886;28;20120;-64
2022/05/27 05:57:45;;;;;;;2.47;1.30;;;17.30;81.00;;;;;;5031014;28;20029;-63
2022/05/27 06:00:15;;;;;;;4.38;1.60;;;17.30;81.00;;;;;;5028891;28;20029;-64
2022/05/27 06:02:41;;;;;;;9.65;1.20;;;17.40;81.10;;;;;;5028702;28;20052;-64
2022/05/27 06:05:07;;;;;;;4.47;1.30;;;17.30;81.30;;;;;;5027158;28;20546;-64
2022/05/27 06:07:33;;;;;;;4.43;1.50;;;17.30;81.40;;;;;;5027697;28;20032;-65
2022/05/27 06:09:59;;;;;;;2.10;1.30;;;17.40;81.40;;;;;;5024447;28;20037;-63
2022/05/27 06:12:26;;;;;;;3.70;1.52;;;17.30;81.40;;;;;;5028467;28;20060;-64
2022/05/27 06:14:53;;;;;;;2.33;1.15;;;17.30;81.40;;;;;;5027684;28;20067;-63
2022/05/27 06:17:18;;;;;;;2.65;1.23;;;17.30;81.60;;;;;;5028107;28;20532;-64
2022/05/27 06:19:44;;;;;;;4.90;1.40;;;17.30;81.70;;;;;;5028458;28;20022;-64
2022/05/27 06:22:10;;;;;;;1.58;1.20;;;17.30;81.70;;;;;;5028937;28;20037;-64
2022/05/27 06:24:35;;;;;;;4.63;1.20;;;17.40;81.80;;;;;;5028325;28;20022;-65
2022/05/27 06:27:05;;;;;;;2.65;1.00;;;17.40;81.80;;;;;;5029831;28;20029;-64
2022/05/27 06:34:59;;;;;;;2.65;1.42;;;17.40;81.80;;;;;;5030052;28;20088;-63
2022/05/27 06:37:25;;;;;;;3.88;1.30;;;17.40;82.00;;;;;;5029922;28;20033;-64
2022/05/27 06:39:51;;;;;;;4.70;1.40;;;17.40;82.00;;;;;;5026161;28;20022;-63
2022/05/27 06:42:17;;;;;;;3.80;1.13;;;17.50;82.20;;;;;;5029848;28;20039;-63
2022/05/27 06:44:43;;;;;;;6.72;2.05;;;17.50;82.30;;;;;;5029581;28;20128;-63
2022/05/27 06:47:10;;;;;;;3.40;1.25;;;17.50;82.20;;;;;;5029081;28;20493;-63
2022/05/27 06:49:37;;;;;;;3.83;1.40;;;17.60;82.30;;;;;;5028910;28;20031;-62
2022/05/27 06:52:04;;;;;;;1.73;1.05;;;17.60;82.50;;;;;;5029568;28;20529;-63
2022/05/27 06:54:30;;;;;;;2.95;1.10;;;17.60;82.40;;;;;;5028452;28;20075;-63
2022/05/27 06:56:57;;;;;;;0.95;0.95;;;17.60;82.10;;;;;;5029044;28;20061;-63
2022/05/27 06:59:23;;;;;;;1.52;0.90;;;17.60;82.00;;;;;;5028628;28;20100;-63
2022/05/27 07:01:49;;;;;;;1.67;1.08;;;17.70;81.80;;;;;;5027996;28;20699;-63
2022/05/27 07:04:17;;;;;;;2.95;1.05;;;17.60;81.90;;;;;;5027737;28;20109;-63
2022/05/27 07:06:45;;;;;;;4.05;1.50;;;17.70;82.00;;;;;;5027580;28;20136;-64
2022/05/27 07:09:14;;;;;;;6.72;1.25;;;17.60;81.90;;;;;;5026403;28;20534;-63
2022/05/27 07:11:41;;;;;;;5.70;1.48;;;17.60;82.70;;;;;;5028583;28;20124;-63
2022/05/27 07:14:07;;;;;;;4.22;2.15;;;17.60;81.90;;;;;;5027847;28;20029;-63
2022/05/27 07:16:33;;;;;;;3.83;1.50;;;17.70;82.00;;;;;;5045815;28;20086;-63
2022/05/27 07:18:59;;;;;;;6.82;1.20;;;17.70;82.00;;;;;;5031251;28;20052;-63
2022/05/27 07:21:25;;;;;;;2.05;1.05;;;17.60;81.90;;;;;;5037119;28;20023;-64
2022/05/27 07:23:55;;;;;;;1.85;1.17;;;17.70;81.90;;;;;;5032257;28;20033;-63
2022/05/27 07:26:21;;;;;;;4.10;1.13;;;17.70;81.80;;;;;;5038235;28;20036;-64
2022/05/27 07:28:47;;;;;;;4.40;1.50;;;17.70;81.80;;;;;;5046968;28;20330;-63
2022/05/27 07:31:14;;;;;;;8.93;1.67;;;17.60;81.80;;;;;;5047758;28;20036;-63
2022/05/27 07:33:40;;;;;;;1.88;1.20;;;17.60;81.70;;;;;;5049002;28;20057;-63
2022/05/27 07:36:06;;;;;;;1.52;1.10;;;17.60;81.70;;;;;;5036501;28;20037;-63
2022/05/27 07:38:32;;;;;;;2.55;1.23;;;17.60;81.70;;;;;;5027085;28;20032;-63
2022/05/27 07:40:57;;;;;;;10.95;1.23;;;17.60;81.70;;;;;;5026571;28;20041;-63
2022/05/27 07:43:23;;;;;;;1.20;1.10;;;17.60;81.70;;;;;;5028734;28;20033;-63
2022/05/27 07:45:49;;;;;;;2.25;1.30;;;17.70;81.90;;;;;;5027365;28;20053;-63
2022/05/27 07:48:15;;;;;;;2.35;1.20;;;17.60;81.90;;;;;;5035521;28;20025;-63
2022/05/27 07:50:41;;;;;;;1.75;1.10;;;17.70;81.90;;;;;;5046146;28;20387;-64
2022/05/27 07:53:07;;;;;;;1.23;1.10;;;17.70;81.80;;;;;;5046017;28;20510;-63
2022/05/27 07:55:33;;;;;;;2.67;1.30;;;17.70;81.90;;;;;;5034920;28;20060;-64
2022/05/27 07:57:59;;;;;;;4.15;1.25;;;17.70;81.90;;;;;;5027656;28;20630;-64
2022/05/27 08:00:27;;;;;;;2.60;1.17;;;17.70;81.80;;;;;;5033005;28;20083;-64
2022/05/27 08:02:54;;;;;;;3.10;1.17;;;17.70;81.70;;;;;;5046415;28;20021;-63
2022/05/27 08:05:22;;;;;;;7.20;1.40;;;17.70;81.60;;;;;;5028676;28;20036;-63
2022/05/27 08:07:49;;;;;;;2.20;1.20;;;17.80;81.80;;;;;;5026340;28;20446;-62
2022/05/27 08:10:20;;;;;;;6.03;1.73;;;17.80;82.50;;;;;;5026543;28;20091;-63
2022/05/27 08:12:45;;;;;;;4.00;1.10;;;17.80;81.60;;;;;;5027942;28;20033;-63
2022/05/27 08:15:13;;;;;;;1.88;1.27;;;17.80;81.70;;;;;;5028090;28;20043;-63
2022/05/27 08:17:39;;;;;;;5.10;1.02;;;17.80;81.70;;;;;;5027885;28;20068;-63
2022/05/27 08:20:07;;;;;;;5.15;0.90;;;17.80;81.80;;;;;;5028121;28;20112;-64
2022/05/27 08:22:32;;;;;;;5.43;1.15;;;17.80;81.70;;;;;;5027555;28;20041;-64
2022/05/27 08:24:58;;;;;;;3.53;1.20;;;17.80;81.60;;;;;;5028700;28;20029;-63
2022/05/27 08:27:24;;;;;;;2.70;1.30;;;17.80;81.50;;;;;;5009191;28;20124;-63
2022/05/27 08:29:49;;;;;;;1.50;1.23;;;17.80;81.40;;;;;;5027386;28;20021;-63
2022/05/27 08:32:15;;;;;;;7.60;1.40;;;17.90;81.10;;;;;;5012366;28;20029;-63
2022/05/27 08:40:18;;;;;;;5.13;1.27;;;18.00;81.00;;;;;;5031800;28;20087;-63
2022/05/27 08:43:10;;;;;;;2.13;1.35;;;18.10;81.00;;;;;;5030403;28;20095;-62
2022/05/27 08:45:51;;;;;;;1.23;1.13;;;18.10;81.10;;;;;;5029959;28;20657;-62
2022/05/27 08:48:19;;;;;;;2.65;1.27;;;18.10;81.20;;;;;;5041302;28;20056;-63
2022/05/27 08:50:46;;;;;;;1.95;0.98;;;18.10;81.30;;;;;;5052182;28;20079;-62
2022/05/27 08:53:31;;;;;;;1.55;1.05;;;18.00;81.30;;;;;;5051319;28;20063;-62
2022/05/27 09:01:51;;;;;;;1.30;1.10;;;18.10;81.40;;;;;;5011567;28;20073;-62
2022/05/27 09:04:43;;;;;;;4.25;1.30;;;18.00;81.30;;;;;;5012414;28;20049;-64
2022/05/27 09:07:24;;;;;;;0.90;0.80;;;18.10;81.40;;;;;;5010857;28;20022;-62
2022/05/27 09:09:50;;;;;;;5.05;1.25;;;18.00;81.30;;;;;;5009669;28;20040;-63
2022/05/27 09:12:30;;;;;;;2.13;1.00;;;18.00;81.30;;;;;;5021139;28;20025;-62
2022/05/27 09:15:01;;;;;;;4.25;1.17;;;18.10;81.40;;;;;;5031450;28;20310;-62
2022/05/27 09:17:44;;;;;;;5.05;1.02;;;18.10;81.40;;;;;;5031475;28;20036;-62
2022/05/27 09:20:40;;;;;;;1.73;1.10;;;18.10;81.30;;;;;;5030617;28;20061;-62
2022/05/27 09:23:31;;;;;;;1.08;0.90;;;18.10;81.30;;;;;;5031325;28;20104;-62
2022/05/27 09:26:02;;;;;;;4.78;1.08;;;18.10;81.20;;;;;;5032037;28;20025;-62
2022/05/27 09:29:07;;;;;;;3.47;1.20;;;18.10;81.20;;;;;;5047175;28;20359;-62
2022/05/27 09:31:37;;;;;;;1.45;1.30;;;18.10;81.20;;;;;;5051281;28;20422;-62
2022/05/27 09:34:03;;;;;;;;;;;18.10;81.20;;;;;;5051458;28;20033;-62
2022/05/27 09:36:38;;;;;;;2.15;0.95;;;18.10;81.20;;;;;;5050752;28;20393;-62
2022/05/27 09:39:13;;;;;;;1.45;1.00;;;18.10;81.10;;;;;;5049362;28;20029;-62
2022/05/27 09:42:06;;;;;;;1.70;1.10;;;18.20;81.20;;;;;;5046004;28;20034;-64
2022/05/27 09:44:56;;;;;;;1.48;1.17;;;18.20;81.20;;;;;;5027606;28;20030;-62
2022/05/27 09:47:25;;;;;;;3.90;0.98;;;18.20;81.00;;;;;;5026284;28;20121;-62
2022/05/27 09:50:09;;;;;;;3.00;1.30;;;18.20;81.00;;;;;;5046696;28;20040;-62
2022/05/27 09:52:40;;;;;;;3.70;1.30;;;18.20;81.10;;;;;;5027420;28;20102;-62
2022/05/27 09:55:40;;;;;;;1.70;1.13;;;18.20;81.10;;;;;;5047035;28;20041;-62
2022/05/27 09:58:07;;;;;;;2.90;1.25;;;18.20;81.10;;;;;;5035404;28;20079;-62
2022/05/27 10:00:49;;;;;;;1.85;1.10;;;18.20;81.10;;;;;;5048266;28;20028;-64
2022/05/27 10:03:36;;;;;;;5.35;0.98;;;18.20;81.10;;;;;;5048726;28;20446;-62
2022/05/27 10:06:11;;;;;;;2.40;1.15;;;18.20;81.00;;;;;;5049585;28;20485;-62
2022/05/27 10:08:54;;;;;;;2.35;1.08;;;18.30;81.10;;;;;;5034972;28;20395;-62
2022/05/27 10:11:50;;;;;;;3.08;0.80;;;18.30;81.10;;;;;;5028197;28;20061;-62
2022/05/27 10:14:29;;;;;;;3.20;1.15;;;18.30;81.00;;;;;;5010613;28;20026;-64
2022/05/27 10:17:01;;;;;;;4.10;0.70;;;18.30;80.90;;;;;;5027843;28;20026;-62
2022/05/27 10:19:27;;;;;;;1.10;1.02;;;18.30;81.00;;;;;;5011940;28;20041;-62
2022/05/27 10:22:26;;;;;;;4.60;1.27;;;18.30;81.00;;;;;;5029093;28;20052;-62
2022/05/27 10:25:02;;;;;;;1.52;1.02;;;18.30;80.90;;;;;;5022362;28;20113;-64
2022/05/27 10:31:02;;;;;;;1.23;1.00;;;18.40;80.90;;;;;;5110274;22;20059;-67
2022/05/27 10:33:43;;;;;;;2.70;1.42;;;18.40;80.90;;;;;;5090136;28;20035;-65
2022/05/27 10:36:40;;;;;;;2.65;0.90;;;18.40;80.40;;;;;;5090522;28;20036;-65
2022/05/27 10:39:12;;;;;;;2.58;1.08;;;18.50;80.40;;;;;;5067331;28;20123;-66
2022/05/27 10:41:56;;;;;;;1.95;0.98;;;18.40;80.40;;;;;;5086573;28;20024;-66
2022/05/27 10:44:39;;;;;;;4.43;1.00;;;18.50;80.50;;;;;;5089514;28;20048;-66
2022/05/27 10:50:51;;;;;;;1.13;0.85;;;18.50;80.50;;;;;;5091826;28;20069;-66
2022/05/27 10:53:48;;;;;;;1.53;1.00;;;18.50;80.50;;;;;;5090150;28;20054;-66
2022/05/27 10:56:32;;;;;;;2.47;1.20;;;18.50;80.60;;;;;;5070814;28;20028;-65
2022/05/27 11:02:29;;;;;;;2.25;1.00;;;18.50;80.60;;;;;;5068666;28;20090;-65
2022/05/27 11:05:12;;;;;;;2.85;1.27;;;18.50;80.50;;;;;;5067961;28;20114;-65
2022/05/27 11:08:09;;;;;;;1.38;0.90;;;18.50;80.50;;;;;;5068568;28;20031;-65
2022/05/27 11:10:51;;;;;;;2.95;1.35;;;18.50;80.50;;;;;;5068259;28;20036;-66
2022/05/27 11:50:28;;;;;;;2.22;1.10;;;18.60;80.20;;;;;;5109240;28;20097;-65
2022/05/27 11:52:59;;;;;;;2.50;1.38;;;18.60;80.20;;;;;;5085255;28;20038;-65
2022/05/27 11:55:47;;;;;;;3.30;1.25;;;18.60;80.10;;;;;;5085418;28;20096;-65
2022/05/27 11:58:22;;;;;;;2.63;0.93;;;18.60;80.20;;;;;;5091573;28;20400;-65
2022/05/27 12:00:54;;;;;;;1.70;1.00;;;18.60;80.10;;;;;;5081572;28;20025;-65
2022/05/27 12:03:54;;;;;;;2.88;1.05;;;18.60;80.00;;;;;;5079144;28;20024;-65
2022/05/27 12:06:24;;;;;;;;;;;18.70;80.10;;;;;;5083722;28;20024;-65
2022/05/27 12:09:04;;;;;;;3.30;1.13;;;18.70;80.00;;;;;;5089812;28;19993;-65
2022/05/27 12:11:42;;;;;;;4.72;1.33;;;18.70;80.00;;;;;;5090122;28;20045;-65
2022/05/27 12:14:21;;;;;;;1.90;0.98;;;18.70;80.00;;;;;;5086202;28;20078;-65
2022/05/27 12:16:49;;;;;;;2.03;1.10;;;18.70;80.00;;;;;;5090490;28;20405;-64
2022/05/27 12:19:19;;;;;;;2.53;1.20;;;18.70;79.90;;;;;;5090096;28;20031;-65
2022/05/27 12:21:51;;;;;;;1.08;0.90;;;18.70;79.90;;;;;;5089934;28;20020;-65
2022/05/27 12:24:29;;;;;;;1.15;0.90;;;18.70;79.80;;;;;;5087971;28;20020;-66
2022/05/27 12:26:57;;;;;;;1.40;1.15;;;18.70;79.80;;;;;;5094835;28;20021;-65
2022/05/27 12:29:24;;;;;;;2.80;1.30;;;18.70;79.80;;;;;;5082160;28;20422;-66
2022/05/27 12:31:52;;;;;;;2.35;1.27;;;18.70;79.80;;;;;;5101156;28;20027;-65
2022/05/27 12:34:26;;;;;;;1.35;1.20;;;18.70;79.80;;;;;;5094284;28;20032;-65
2022/05/27 12:36:53;;;;;;;1.50;1.02;;;18.70;79.70;;;;;;5092865;28;20043;-65
2022/05/27 12:39:29;;;;;;;3.40;1.35;;;18.70;79.70;;;;;;5098591;28;20024;-65
2022/05/27 12:42:24;;;;;;;2.13;0.98;;;18.70;79.70;;;;;;5071290;28;20503;-64
2022/05/27 12:44:51;;;;;;;1.23;0.88;;;18.70;79.80;;;;;;5092138;28;20033;-64
2022/05/27 12:47:23;;;;;;;3.55;1.20;;;18.70;79.80;;;;;;5090489;28;20036;-66
2022/05/27 12:50:04;;;;;;;1.02;0.90;;;18.70;79.80;;;;;;5091268;28;20075;-64
2022/05/27 12:52:29;;;;;;;2.20;1.30;;;18.70;79.70;;;;;;5091957;28;20515;-65
2022/05/27 12:54:59;;;;;;;1.60;1.10;;;18.70;79.70;;;;;;5091608;28;20036;-64
2022/05/27 13:00:57;;;;;;;3.03;0.93;;;18.70;79.70;;;;;;5087682;28;20047;-65
2022/05/27 13:03:44;;;;;;;3.78;1.30;;;18.70;79.80;;;;;;5075349;28;20102;-67
2022/05/27 13:06:18;;;;;;;1.60;1.02;;;18.70;80.50;;;;;;5094524;28;20115;-65
2022/05/27 13:08:52;;;;;;;8.38;1.10;;;18.60;79.70;;;;;;5096253;28;20028;-65
2022/05/27 13:14:56;;;;;;;1.25;1.05;;;18.70;79.80;;;;;;5096565;28;20022;-65
2022/05/27 13:17:36;;;;;;;3.83;1.20;;;18.70;79.80;;;;;;5111927;28;20426;-65
2022/05/27 13:20:17;;;;;;;1.55;1.00;;;18.60;79.70;;;;;;5114843;28;20020;-65
2022/05/27 13:22:45;;;;;;;;;;;18.70;79.80;;;;;;5113611;28;20047;-66
2022/05/27 13:25:19;;;;;;;4.65;0.82;;;18.70;79.80;;;;;;5112000;28;19911;-65
2022/05/27 13:27:45;;;;;;;1.38;0.82;;;18.70;79.80;;;;;;5112100;28;20350;-65
2022/05/27 13:30:14;;;;;;;1.85;1.23;;;18.60;79.70;;;;;;5111385;28;20650;-64
2022/05/27 13:33:01;;;;;;;6.88;0.98;;;18.60;79.80;;;;;;5095826;28;20031;-66
2022/05/27 13:35:39;;;;;;;1.33;1.00;;;18.60;79.80;;;;;;5111404;28;20046;-65
2022/05/27 13:38:10;;;;;;;2.17;1.10;;;18.60;79.90;;;;;;5094032;28;20024;-65
2022/05/27 13:40:36;;;;;;;2.03;1.02;;;18.60;79.90;;;;;;5111586;28;20020;-65
2022/05/27 13:43:14;;;;;;;1.58;1.13;;;18.60;79.90;;;;;;5092028;28;20107;-65
2022/05/27 13:45:45;;;;;;;2.42;1.00;;;18.60;79.90;;;;;;5090708;28;20039;-66
2022/05/27 13:48:19;;;;;;;1.27;0.90;;;18.60;79.90;;;;;;5091057;28;20261;-65
2022/05/27 13:50:46;;;;;;;4.78;1.17;;;18.60;79.90;;;;;;5073041;28;20477;-64
2022/05/27 13:53:21;;;;;;;1.70;1.17;;;18.60;80.00;;;;;;5091855;28;20169;-64
2022/05/27 13:55:52;;;;;;;0.75;0.73;;;18.60;80.00;;;;;;5091002;28;20039;-65
2022/05/27 13:58:19;;;;;;;3.80;0.88;;;18.50;79.90;;;;;;5090635;28;20519;-64
2022/05/27 14:00:46;;;;;;;5.30;1.13;;;18.50;79.90;;;;;;5090038;28;20032;-65
2022/05/27 14:03:47;;;;;;;0.90;0.90;;;18.50;79.90;;;;;;5091197;28;20017;-65
2022/05/27 14:06:24;;;;;;;3.30;0.90;;;18.60;80.00;;;;;;5008425;28;20034;-65
2022/05/27 14:08:50;;;;;;;1.48;0.68;;;18.60;80.00;;;;;;5007842;28;20073;-64
2022/05/27 14:11:19;;;;;;;3.00;0.90;;;18.60;79.90;;;;;;5008733;28;20175;-65
2022/05/27 14:13:54;;;;;;;1.02;0.85;;;18.60;79.90;;;;;;5008630;28;20030;-64
2022/05/27 14:16:34;;;;;;;0.80;0.70;;;18.50;79.80;;;;;;5008314;28;20057;-65
2022/05/27 14:19:10;;;;;;;1.92;1.15;;;18.60;80.00;;;;;;5017176;28;20490;-65
2022/05/27 14:24:31;;;;;;;1.33;0.90;;;18.60;79.90;;;;;;5028641;28;20401;-65
2022/05/27 14:26:58;;;;;;;3.55;0.85;;;18.60;79.90;;;;;;5028165;28;20036;-65
2022/05/27 14:29:25;;;;;;;1.42;0.90;;;18.50;79.90;;;;;;5026344;28;20120;-65
2022/05/27 14:32:01;;;;;;;2.15;1.10;;;18.60;80.00;;;;;;5019633;28;20046;-65
2022/05/27 14:34:28;;;;;;;3.47;1.20;;;18.50;79.90;;;;;;5007533;28;20443;-65
2022/05/27 14:36:57;;;;;;;0.90;0.90;;;18.50;79.90;;;;;;5008572;28;20074;-65
2022/05/27 14:39:23;;;;;;;4.57;1.00;;;18.50;80.00;;;;;;5007750;28;20034;-65
2022/05/27 14:41:49;;;;;;;2.15;1.00;;;18.50;80.00;;;;;;5031524;28;20107;-65
2022/05/27 14:44:27;;;;;;;3.22;1.00;;;18.50;80.00;;;;;;5090508;28;20107;-64
2022/05/27 14:47:21;;;;;;;2.45;1.20;;;18.50;80.00;;;;;;5089675;28;20017;-65
2022/05/27 14:49:55;;;;;;;1.67;1.10;;;18.50;80.00;;;;;;5090099;28;20035;-65
2022/05/27 14:52:26;;;;;;;2.13;1.10;;;18.50;80.10;;;;;;5090077;28;20081;-65
2022/05/27 14:55:01;;;;;;;1.80;1.02;;;18.50;80.10;;;;;;5090626;28;20035;-65
2022/05/27 14:57:40;;;;;;;2.83;0.90;;;18.50;80.10;;;;;;5089893;28;20487;-64
2022/05/27 15:00:08;;;;;;;4.20;0.93;;;18.50;80.10;;;;;;5089743;28;20069;-64
2022/05/27 15:02:40;;;;;;;2.45;0.73;;;18.50;80.10;;;;;;5089341;28;20118;-65
2022/05/27 15:05:09;;;;;;;1.05;0.90;;;18.50;80.90;;;;;;5072396;28;20210;-65
2022/05/27 15:07:44;;;;;;;2.13;1.10;;;18.50;80.10;;;;;;5090220;28;20086;-65
2022/05/27 15:10:34;;;;;;;0.90;0.88;;;18.50;80.10;;;;;;5089908;28;20031;-65
2022/05/27 15:13:18;;;;;;;;;;;18.50;80.90;;;;;;5090364;28;20477;-65
2022/05/27 15:15:44;;;;;;;2.38;1.10;;;18.40;80.10;;;;;;5090169;28;20002;-65
2022/05/27 15:18:14;;;;;;;1.60;0.90;;;18.40;80.10;;;;;;5086477;28;20031;-65
2022/05/27 15:20:47;;;;;;;3.75;0.90;;;18.40;80.20;;;;;;5107181;28;20027;-65
2022/05/27 15:23:13;;;;;;;4.53;1.00;;;18.40;80.20;;;;;;5110685;28;20404;-64
2022/05/27 15:25:43;;;;;;;2.53;1.10;;;18.40;80.10;;;;;;5109985;28;20045;-65
2022/05/27 15:33:49;;;;;;;1.10;1.00;;;18.40;80.20;;;;;;5089341;28;20439;-65
2022/05/27 15:36:16;;;;;;;3.20;0.90;;;18.40;80.10;;;;;;5089994;28;20085;-65
2022/05/27 15:38:45;;;;;;;3.55;1.00;;;18.40;80.10;;;;;;5089839;28;20115;-65
2022/05/27 15:41:10;;;;;;;1.92;0.98;;;18.40;80.10;;;;;;5090192;28;20108;-65
2022/05/27 15:43:42;;;;;;;1.80;1.00;;;18.40;80.10;;;;;;5089745;28;20469;-64
2022/05/27 15:46:12;;;;;;;2.92;1.00;;;18.40;80.10;;;;;;5088535;28;20042;-65
2022/05/27 15:48:41;;;;;;;0.80;0.80;;;18.40;80.10;;;;;;5085650;28;20081;-65
2022/05/27 15:51:08;;;;;;;1.75;1.02;;;18.40;80.10;;;;;;5075957;28;20049;-65
2022/05/27 15:53:37;;;;;;;0.80;0.80;;;18.40;80.10;;;;;;5097985;28;20024;-65
2022/05/27 15:56:04;;;;;;;2.03;1.00;;;18.30;80.00;;;;;;5073057;28;20507;-65
2022/05/27 15:58:30;;;;;;;5.45;1.20;;;18.40;80.10;;;;;;5097977;28;20028;-64
2022/05/27 16:00:59;;;;;;;1.27;0.90;;;18.30;80.00;;;;;;5092271;28;20499;-65
2022/05/27 16:03:29;;;;;;;2.28;1.08;;;18.30;79.90;;;;;;5095393;28;20078;-66
2022/05/27 16:06:00;;;;;;;2.55;1.10;;;18.30;80.00;;;;;;5085231;28;20036;-65
2022/05/27 16:08:27;;;;;;;2.40;1.02;;;18.30;80.00;;;;;;5070983;28;20468;-65
2022/05/27 16:10:53;;;;;;;1.52;1.00;;;18.30;80.00;;;;;;5089701;28;20047;-64
2022/05/27 16:13:19;;;;;;;3.30;1.30;;;18.30;80.00;;;;;;5071679;28;20024;-64
2022/05/27 16:18:29;;;;;;;3.75;1.20;;;18.30;80.10;;;;;;5088295;28;20384;-64
2022/05/27 16:20:55;;;;;;;2.80;1.23;;;18.30;80.10;;;;;;5084882;28;20024;-65
2022/05/27 16:23:20;;;;;;;10.85;1.35;;;18.30;80.20;;;;;;5070025;28;20023;-65
2022/05/27 16:25:47;;;;;;;1.10;1.00;;;18.20;80.10;;;;;;5089589;28;20117;-65
2022/05/27 16:28:12;;;;;;;1.58;1.30;;;18.30;80.30;;;;;;5069611;28;20485;-66
2022/05/27 16:30:47;;;;;;;1.73;1.27;;;18.20;80.30;;;;;;5089387;28;20170;-65
2022/05/27 16:35:41;;;;;;;1.58;1.10;;;18.20;80.30;;;;;;5044736;28;20060;-62
2022/05/27 16:38:07;;;;;;;2.20;1.20;;;18.20;80.40;;;;;;5047952;28;20477;-62
2022/05/27 16:40:33;;;;;;;1.30;1.00;;;18.20;80.40;;;;;;5047401;28;20029;-63
2022/05/27 16:42:59;;;;;;;2.10;1.20;;;18.20;80.40;;;;;;5043750;28;20048;-62
2022/05/27 16:45:25;;;;;;;1.98;1.20;;;18.20;80.50;;;;;;5028742;28;20028;-62
2022/05/27 16:47:53;;;;;;;1.98;1.08;;;18.20;80.50;;;;;;5034783;28;20036;-62
2022/05/27 16:50:23;;;;;;;1.58;1.05;;;18.20;80.50;;;;;;5028502;28;20402;-62
2022/05/27 16:52:49;;;;;;;2.20;1.20;;;18.20;80.50;;;;;;5050208;28;20505;-62
2022/05/27 16:55:16;;;;;;;3.95;1.10;;;18.20;80.60;;;;;;5049690;28;20048;-63
2022/05/27 16:57:42;;;;;;;3.53;1.35;;;18.20;80.60;;;;;;5033800;28;20029;-62
2022/05/27 17:00:11;;;;;;;1.05;0.95;;;18.20;80.60;;;;;;5051678;28;20056;-62
2022/05/27 17:02:40;;;;;;;5.25;1.20;;;18.20;80.60;;;;;;5045581;28;20024;-62
2022/05/27 17:05:06;;;;;;;1.35;1.25;;;18.20;80.70;;;;;;5043263;28;20072;-62
2022/05/27 17:07:32;;;;;;;1.73;1.10;;;18.20;80.60;;;;;;5031409;28;20097;-63
2022/05/27 17:09:58;;;;;;;1.55;1.17;;;18.20;80.70;;;;;;5046787;28;20029;-62
2022/05/27 17:12:25;;;;;;;3.22;1.10;;;18.20;80.70;;;;;;5031734;28;20048;-63
2022/05/27 17:14:52;;;;;;;2.17;1.13;;;18.20;80.70;;;;;;5032378;28;20040;-62
2022/05/27 17:17:17;;;;;;;1.02;0.90;;;18.20;80.70;;;;;;5041166;28;20021;-63
2022/05/27 17:19:43;;;;;;;1.10;0.90;;;18.20;80.70;;;;;;5041902;28;20396;-62
2022/05/27 17:22:11;;;;;;;4.15;1.13;;;18.20;80.70;;;;;;5031266;28;20033;-62
2022/05/27 17:24:37;;;;;;;1.23;0.90;;;18.20;80.70;;;;;;5031061;28;20036;-62
2022/05/27 17:27:03;;;;;;;1.58;1.10;;;18.20;80.70;;;;;;5013984;28;20390;-62
2022/05/27 17:29:28;;;;;;;0.80;0.80;;;18.20;80.80;;;;;;5030625;28;20029;-63
2022/05/27 17:31:55;;;;;;;1.35;1.25;;;18.20;80.80;;;;;;5013867;28;20033;-62
2022/05/27 17:34:21;;;;;;;1.08;0.93;;;18.20;80.80;;;;;;5034819;28;20029;-62
2022/05/27 17:36:47;;;;;;;1.00;0.73;;;18.20;80.80;;;;;;5050890;28;20406;-63
2022/05/27 17:39:14;;;;;;;1.83;0.90;;;18.20;80.80;;;;;;5050511;28;20028;-62
2022/05/27 17:41:40;;;;;;;0.90;0.90;;;18.20;80.80;;;;;;5051558;28;20029;-63
2022/05/27 17:44:05;;;;;;;0.80;0.65;;;18.20;80.80;;;;;;5050573;28;20051;-62
2022/05/27 17:52:05;;;;;;;1.80;0.85;;;18.10;80.70;;;;;;5051805;28;20075;-63
2022/05/27 17:54:31;;;;;;;0.80;0.80;;;18.10;80.70;;;;;;5050542;28;20025;-62
2022/05/27 17:56:58;;;;;;;1.17;0.82;;;18.10;80.70;;;;;;5050604;28;20025;-62
2022/05/27 17:59:24;;;;;;;1.30;0.80;;;18.10;80.70;;;;;;5032611;28;20134;-62
2022/05/27 18:01:50;;;;;;;1.15;0.88;;;18.10;80.70;;;;;;5050251;28;20025;-63
2022/05/27 18:04:16;;;;;;;1.15;1.00;;;18.10;80.70;;;;;;5048386;28;20036;-63
2022/05/27 18:06:43;;;;;;;0.70;0.70;;;18.10;80.70;;;;;;5050596;28;20032;-63
2022/05/27 18:09:08;;;;;;;1.23;0.70;;;18.10;80.70;;;;;;5050422;28;20021;-62
2022/05/27 18:11:34;;;;;;;0.85;0.70;;;18.10;80.70;;;;;;5050569;28;20386;-63
2022/05/27 18:14:00;;;;;;;0.75;0.75;;;18.10;80.70;;;;;;5059249;28;20020;-62
2022/05/27 18:16:26;;;;;;;0.85;0.73;;;18.10;80.60;;;;;;5041694;28;20046;-64